Main page
METAR-TAF:

METAR-TAF

Airports :

Ciudad de Catamayo Airport

Loja, Ecuador

latitude: 03-59-45S, longitude: 079-22-19W, elevation: 1236 m

Current weather observation

The report was made 15 hours and 22 minutes ago, at 19:00 UTC
Wind 11 kt from the West
Temperature 28°C
Humidity 48%
Pressure 1018 hPa
Visibility 10 km or more
Broken clouds at a height of 4000 ft

METAR: SECA 151900Z 28011KT 9999 BKN040 28/16 Q1018

Time: 05:22 (10:22 UTC)


TAF: missing

Weather observations and forecasts of more than 4000 airports (METAR and TAF reports).

The available stations are represented by yellow and red dots on the map.

Hover mouse over dot to see the name of the station.

Then click to see weather observations and forecasts.

To change the map : click on the green buttons with a black cross to zoom in, on the green button with a dash to zoom out, or on the green arrows for adjacent maps.


METAR-TAF: